Aviation Digital Data Service (ADDS)

Output produced by METARs form (1101 UTC 30 April 2017)
found at http://www.aviationweather.gov/adds/metars/
 
LYBE 301030Z VRB03KT 9999 BKN040 14/05 Q1019 NOSIG
TAF LYBE 300500Z 3006/0106 24006KT 9999 SCT040 TX16/3012Z TN05/0104Z
       
LYNI 301030Z 32005KT 9999 -RA FEW015 SCT023 BKN037 09/06 Q1018 RERA NOSIG
TAF LYNI 300500Z 3006/0106 32008KT 9999 BKN033 TX14/3012Z TN06/0104Z 
     PROB40 
     TEMPO 3010/3016 5000 SHRA SCT027TCU BKN030
       
LYVR 301030Z VRB05KT 9999 SCT026 13/05 Q1018 NOSIG
TAF LYVR 300500Z 3006/0106 24006KT 9999 SCT033 TX15/3012Z TN06/0104Z
       
LYKV 301030Z VRB02KT 9999 SCT033 SCT040 12/05 Q1018 NOSIG
TAF LYKV 300500Z 3006/0106 VRB02KT 9999 BKN033 TX16/3013Z TN05/0104Z 
     PROB30 
     TEMPO 3013/3018 5000 -SHRA SCT027TCU SCT030 
     TEMPO 0102/0106 0500 FG
       
LYBT 301030Z 32004KT 250V020 9999 SCT040 13/03 Q1018 NOSIG
TAF LYBT 300500Z 3006/0106 22006KT 9999 SCT040 TX16/3012Z TN05/0104Z
       
LYUZ 301030Z VRB02KT 9999 BKN017 07/04 Q1017
TAF LYUZ 291100Z 2912/3012 01006KT 0800 -RA FG OVC002 TX10/3012Z TNM02/3003Z 
     BECMG 3002/3004 2000 BR BKN005 
     BECMG 3008/3010 5000 SCT010